createdAt,value
2019-05-17T00:01:10.637Z,36.40
2019-05-17T00:03:21.009Z,34.30
2019-05-17T00:05:26.513Z,35.93
2019-05-17T00:07:31.125Z,36.63
2019-05-17T00:09:48.382Z,35.80
2019-05-17T00:12:00.473Z,34.97
2019-05-17T00:14:01.373Z,35.50
2019-05-17T00:16:17.437Z,34.47
2019-05-17T00:18:22.080Z,34.70
2019-05-17T00:20:43.374Z,33.50
2019-05-17T00:22:53.595Z,32.67
2019-05-17T00:25:00.939Z,33.97
2019-05-17T00:27:07.065Z,32.60
2019-05-17T00:29:20.667Z,34.90
2019-05-17T00:31:22.231Z,35.17
2019-05-17T00:33:27.538Z,33.40
2019-05-17T00:35:46.735Z,35.77
2019-05-17T00:37:50.458Z,34.20
2019-05-17T00:40:23.788Z,33.93
2019-05-17T00:42:22.943Z,33.90
2019-05-17T00:44:33.915Z,34.37
2019-05-17T00:46:41.229Z,34.90
2019-05-17T00:48:46.610Z,36.40
2019-05-17T00:50:53.422Z,35.80
2019-05-17T00:53:06.943Z,36.43
2019-05-17T00:55:24.136Z,35.50
2019-05-17T00:57:21.994Z,34.87
2019-05-17T01:01:49.390Z,33.27
2019-05-17T01:04:17.270Z,36.60
2019-05-17T01:06:33.373Z,36.20
2019-05-17T01:08:37.543Z,37.40
2019-05-17T01:10:48.281Z,36.77
2019-05-17T01:13:10.342Z,37.50
2019-05-17T01:15:41.508Z,37.83
2019-05-17T01:17:56.179Z,38.00
2019-05-17T01:19:59.722Z,36.50
2019-05-17T01:24:46.307Z,35.20
2019-05-17T01:26:50.601Z,36.40
2019-05-17T01:29:03.345Z,37.63
2019-05-17T01:31:47.080Z,37.63
2019-05-17T01:38:13.896Z,38.73
2019-05-17T01:45:00.008Z,38.47
2019-05-17T01:46:49.349Z,36.57
2019-05-17T01:48:57.818Z,35.40
2019-05-17T01:51:19.948Z,36.87
2019-05-17T01:55:37.522Z,36.30
2019-05-17T01:57:41.596Z,37.30
2019-05-17T02:00:17.571Z,36.17
2019-05-17T02:02:40.234Z,37.40
2019-05-17T02:05:28.887Z,35.53
2019-05-17T02:07:46.378Z,35.97
2019-05-17T02:10:22.400Z,36.17
2019-05-17T02:12:26.825Z,36.00
2019-05-17T02:14:48.821Z,35.23
2019-05-17T02:16:50.184Z,37.97
2019-05-17T02:18:54.706Z,36.13
2019-05-17T02:21:01.804Z,38.83
2019-05-17T02:23:10.063Z,38.90
2019-05-17T02:25:12.254Z,38.67
2019-05-17T02:27:16.212Z,36.73
2019-05-17T02:29:21.475Z,38.03
2019-05-17T02:31:26.434Z,35.27
2019-05-17T02:33:33.150Z,36.20
2019-05-17T02:35:42.963Z,34.50
2019-05-17T02:37:46.176Z,34.00
2019-05-17T02:40:04.532Z,33.73
2019-05-17T02:42:09.264Z,35.90
2019-05-17T02:44:16.328Z,36.60
2019-05-17T02:46:23.085Z,35.10
2019-05-17T02:48:33.780Z,35.47
2019-05-17T02:50:53.020Z,35.20
2019-05-17T02:53:23.313Z,31.87
2019-05-17T02:55:53.990Z,35.00
2019-05-17T02:58:02.563Z,34.50
2019-05-17T03:00:06.361Z,33.13
2019-05-17T03:02:12.588Z,29.90
2019-05-17T03:04:16.030Z,31.40
2019-05-17T03:06:25.494Z,30.17
2019-05-17T03:08:29.857Z,27.03
2019-05-17T03:10:34.174Z,28.47
2019-05-17T03:12:45.019Z,28.07
2019-05-17T03:14:49.142Z,28.83
2019-05-17T03:16:53.818Z,29.83
2019-05-17T03:18:58.045Z,29.87
2019-05-17T03:21:03.696Z,30.63
2019-05-17T03:23:08.387Z,31.33
2019-05-17T03:25:13.781Z,30.37
2019-05-17T03:27:36.542Z,32.07
2019-05-17T03:29:42.520Z,30.23
2019-05-17T03:31:53.421Z,30.77
2019-05-17T03:33:55.908Z,31.80
2019-05-17T03:35:59.107Z,30.17
2019-05-17T03:38:05.570Z,30.70
2019-05-17T03:40:29.564Z,29.73
2019-05-17T03:42:47.979Z,29.40
2019-05-17T03:45:03.044Z,30.37
2019-05-17T03:48:05.059Z,27.97
2019-05-17T04:03:13.467Z,27.20
2019-05-17T04:05:49.132Z,27.50
2019-05-17T04:08:14.764Z,27.27
2019-05-17T04:10:46.182Z,26.93
2019-05-17T04:13:42.821Z,25.67
2019-05-17T04:15:56.140Z,24.67
2019-05-17T04:34:29.381Z,22.03
2019-05-17T04:36:43.072Z,20.87
2019-05-17T04:39:23.211Z,19.10
2019-05-17T04:41:49.081Z,20.50
2019-05-17T04:46:16.032Z,19.97
2019-05-17T04:48:26.339Z,18.37
2019-05-17T04:50:44.757Z,19.10
2019-05-17T04:52:53.563Z,17.07
2019-05-17T04:55:04.216Z,16.17
2019-05-17T04:57:53.240Z,14.00
2019-05-17T05:00:12.767Z,13.87
2019-05-17T05:02:23.385Z,12.97
2019-05-17T05:04:53.166Z,12.30
2019-05-17T05:06:52.701Z,12.83
2019-05-17T05:09:28.304Z,12.73
2019-05-17T05:12:00.776Z,13.20
2019-05-17T05:14:23.323Z,13.80
2019-05-17T05:16:54.902Z,11.70
2019-05-17T05:27:06.535Z,12.40
2019-05-17T05:29:27.068Z,13.07
2019-05-17T05:32:37.582Z,14.57
2019-05-17T05:35:38.348Z,13.50
2019-05-17T06:30:38.425Z,8.03
2019-05-17T06:37:13.319Z,7.80
2019-05-17T06:48:27.071Z,9.00
2019-05-17T06:51:22.050Z,8.50
2019-05-17T06:53:43.494Z,9.37
2019-05-17T06:56:07.426Z,8.70
2019-05-17T06:58:27.068Z,8.30
2019-05-17T07:00:50.027Z,9.20
2019-05-17T07:03:09.563Z,8.47
2019-05-17T07:05:59.633Z,8.40
2019-05-17T07:08:13.138Z,9.00
2019-05-17T07:13:43.014Z,9.43
2019-05-17T07:16:24.886Z,8.43
2019-05-17T07:18:40.080Z,9.23
2019-05-17T07:21:02.835Z,8.63
2019-05-17T07:23:25.414Z,9.10
2019-05-17T07:26:23.766Z,9.43
2019-05-17T07:31:51.146Z,7.50
2019-05-17T07:40:30.391Z,8.93
2019-05-17T07:43:10.430Z,9.30
2019-05-17T07:45:16.174Z,8.47
2019-05-17T07:47:26.220Z,8.90
2019-05-17T07:49:40.333Z,8.60
2019-05-17T07:51:55.340Z,8.43
2019-05-17T07:53:59.842Z,7.93
2019-05-17T07:56:04.333Z,7.50
2019-05-17T07:58:14.594Z,7.77
2019-05-17T08:01:02.144Z,6.10
2019-05-17T08:06:44.989Z,6.10
2019-05-17T08:09:14.095Z,7.40
2019-05-17T08:11:50.144Z,7.10
2019-05-17T08:14:00.929Z,6.43
2019-05-17T08:16:22.629Z,7.30
2019-05-17T08:19:26.883Z,6.50
2019-05-17T08:22:42.401Z,7.20
2019-05-17T08:25:32.489Z,6.00
2019-05-17T08:28:04.172Z,7.27
2019-05-17T08:30:22.568Z,7.23
2019-05-17T08:32:42.327Z,8.57
2019-05-17T08:34:52.335Z,7.47
2019-05-17T08:37:09.699Z,8.47
2019-05-17T08:39:16.817Z,9.03
2019-05-17T08:41:45.282Z,9.50
2019-05-17T08:43:56.264Z,10.23
2019-05-17T08:46:02.532Z,9.20
2019-05-17T08:48:35.747Z,9.10
2019-05-17T08:51:05.562Z,8.60
2019-05-17T08:57:03.766Z,9.70
2019-05-17T08:59:43.548Z,8.90
2019-05-17T09:02:19.867Z,9.90
2019-05-17T09:04:29.610Z,9.97
2019-05-17T09:06:34.085Z,9.07
2019-05-17T09:08:40.370Z,10.87
2019-05-17T09:10:43.482Z,10.23
2019-05-17T09:12:52.452Z,10.53
2019-05-17T09:15:01.143Z,10.70
2019-05-17T09:17:27.140Z,9.40
2019-05-17T09:19:31.044Z,10.67
2019-05-17T09:21:41.097Z,10.73
2019-05-17T09:23:51.198Z,11.37
2019-05-17T09:25:55.060Z,11.50
2019-05-17T09:28:09.882Z,10.87
2019-05-17T09:30:34.652Z,9.40
2019-05-17T09:32:50.337Z,11.13
2019-05-17T09:38:49.463Z,10.63
2019-05-17T09:44:11.761Z,10.67
2019-05-17T09:46:55.837Z,11.60
2019-05-17T09:49:05.523Z,10.70
2019-05-17T09:51:15.055Z,10.70
2019-05-17T09:56:01.909Z,11.90
2019-05-17T09:58:05.893Z,12.30
2019-05-17T10:00:23.289Z,11.67
2019-05-17T10:03:00.092Z,12.00
2019-05-17T10:05:41.652Z,12.20
2019-05-17T10:08:03.625Z,10.70
2019-05-17T10:10:45.372Z,12.80
2019-05-17T10:13:22.312Z,12.93
2019-05-17T10:19:00.087Z,13.60
2019-05-17T10:21:05.384Z,12.17
2019-05-17T10:23:12.498Z,13.07
2019-05-17T10:25:16.465Z,14.67
2019-05-17T10:27:20.390Z,12.40
2019-05-17T10:29:42.505Z,11.70
2019-05-17T10:31:47.258Z,12.30
2019-05-17T10:34:33.655Z,11.57
2019-05-17T10:40:50.402Z,10.27
2019-05-17T11:33:59.017Z,13.10
2019-05-17T11:36:32.996Z,14.23
2019-05-17T11:39:25.180Z,13.67
2019-05-17T11:45:07.712Z,14.17
2019-05-17T11:48:02.977Z,14.87
2019-05-17T11:50:55.217Z,13.80
2019-05-17T11:53:43.956Z,14.03
2019-05-17T11:56:25.151Z,13.97
2019-05-17T11:59:00.670Z,13.03
2019-05-17T12:01:11.132Z,13.00
2019-05-17T12:06:25.274Z,13.27
2019-05-17T12:08:56.353Z,13.03
2019-05-17T12:11:59.939Z,13.17
2019-05-17T12:14:37.465Z,12.60
2019-05-17T12:16:59.406Z,11.90
2019-05-17T12:19:44.504Z,12.63
2019-05-17T12:22:51.111Z,11.50
2019-05-17T12:29:04.878Z,10.23
2019-05-17T12:34:15.958Z,10.27
2019-05-17T12:36:37.598Z,10.47
2019-05-17T12:38:48.767Z,9.00
2019-05-17T12:41:26.295Z,8.87
2019-05-17T12:43:59.785Z,10.03
2019-05-17T12:49:04.912Z,9.87
2019-05-17T12:51:44.927Z,10.63
2019-05-17T12:55:44.294Z,12.27
2019-05-17T12:56:38.153Z,11.80
2019-05-17T12:58:52.933Z,11.27
2019-05-17T13:01:13.920Z,11.60
2019-05-17T13:06:39.016Z,12.30
2019-05-17T13:13:13.096Z,12.67
2019-05-17T13:15:39.061Z,11.13
2019-05-17T13:17:46.550Z,11.30
2019-05-17T13:20:19.055Z,11.20
2019-05-17T13:23:12.497Z,10.63
2019-05-17T13:25:48.053Z,10.87
2019-05-17T13:28:23.420Z,10.23
2019-05-17T13:31:10.182Z,9.40
2019-05-17T13:33:50.584Z,9.47
2019-05-17T13:36:45.545Z,10.37
2019-05-17T13:39:06.589Z,8.80
2019-05-17T13:41:32.183Z,8.87
2019-05-17T13:46:35.891Z,9.53
2019-05-17T13:48:39.938Z,8.23
2019-05-17T13:50:52.145Z,7.73
2019-05-17T13:53:28.156Z,8.13
2019-05-17T13:56:04.754Z,7.73
2019-05-17T13:58:33.304Z,7.70
2019-05-17T14:01:03.771Z,6.80
2019-05-17T14:06:31.197Z,6.90
2019-05-17T14:09:13.726Z,6.50
2019-05-17T14:11:28.459Z,7.20
2019-05-17T14:14:08.606Z,6.77
2019-05-17T14:27:00.867Z,6.93
2019-05-17T14:29:11.318Z,6.20
2019-05-17T14:31:23.519Z,7.43
2019-05-17T14:36:40.309Z,6.00
2019-05-17T14:45:44.333Z,8.07
2019-05-17T14:48:15.503Z,8.00
2019-05-17T14:50:49.564Z,7.30
2019-05-17T14:52:53.711Z,6.40
2019-05-17T14:55:18.451Z,6.83
2019-05-17T14:57:37.646Z,6.10
2019-05-17T14:59:46.318Z,6.13
2019-05-17T15:02:05.596Z,6.57
2019-05-17T15:04:35.545Z,7.40
2019-05-17T15:06:39.916Z,7.07
2019-05-17T15:08:43.994Z,6.40
2019-05-17T15:10:48.081Z,8.33
2019-05-17T15:12:52.023Z,7.83
2019-05-17T15:14:56.221Z,8.23
2019-05-17T15:17:00.601Z,8.53
2019-05-17T15:19:07.606Z,8.90
2019-05-17T15:21:17.408Z,9.07
2019-05-17T15:23:26.225Z,8.43
2019-05-17T15:25:45.807Z,10.13
2019-05-17T15:27:50.444Z,10.43
2019-05-17T15:29:58.036Z,10.40
2019-05-17T15:32:06.201Z,10.47
2019-05-17T15:34:23.692Z,10.70
2019-05-17T15:36:45.645Z,10.77
2019-05-17T15:38:52.394Z,11.30
2019-05-17T15:40:57.938Z,12.47
2019-05-17T15:43:01.909Z,11.70
2019-05-17T15:45:33.563Z,11.00
2019-05-17T15:47:40.794Z,10.90
2019-05-17T15:49:54.029Z,11.77
2019-05-17T15:52:07.275Z,13.57
2019-05-17T15:54:16.501Z,12.70
2019-05-17T15:56:21.227Z,13.33
2019-05-17T15:58:26.601Z,14.33
2019-05-17T16:00:36.840Z,13.60
2019-05-17T16:02:48.455Z,13.37
2019-05-17T16:05:01.277Z,15.47
2019-05-17T16:07:07.330Z,14.10
2019-05-17T16:09:24.402Z,15.63
2019-05-17T16:11:34.101Z,16.17
2019-05-17T16:13:43.770Z,14.87
2019-05-17T16:15:59.006Z,14.00
2019-05-17T16:18:15.812Z,16.30
2019-05-17T16:20:25.238Z,15.70
2019-05-17T16:22:41.065Z,15.80
2019-05-17T16:25:00.114Z,15.53
2019-05-17T16:27:16.676Z,16.17
2019-05-17T16:29:29.161Z,16.30
2019-05-17T16:31:43.261Z,15.77
2019-05-17T16:33:52.263Z,16.90
2019-05-17T16:35:59.279Z,16.73
2019-05-17T16:38:15.473Z,17.00
2019-05-17T16:40:32.229Z,16.37
2019-05-17T16:42:43.593Z,17.20
2019-05-17T16:44:59.263Z,17.47
2019-05-17T16:47:11.457Z,16.07
2019-05-17T16:49:23.049Z,15.53
2019-05-17T16:51:32.684Z,16.40
2019-05-17T16:53:42.500Z,17.37
2019-05-17T16:55:51.556Z,17.43
2019-05-17T16:57:59.527Z,17.50
2019-05-17T17:00:14.968Z,17.20
2019-05-17T17:02:19.594Z,18.83
2019-05-17T17:04:26.944Z,18.40
2019-05-17T17:06:36.304Z,16.70
2019-05-17T17:08:44.708Z,16.80
2019-05-17T17:10:56.858Z,17.10
2019-05-17T17:13:10.868Z,15.73
2019-05-17T17:15:29.026Z,18.63
2019-05-17T17:17:34.140Z,17.33
2019-05-17T17:19:42.919Z,17.13
2019-05-17T17:21:51.992Z,18.83
2019-05-17T17:23:58.854Z,17.97
2019-05-17T17:26:03.048Z,16.90
2019-05-17T17:28:16.439Z,17.43
2019-05-17T17:30:35.305Z,16.93
2019-05-17T17:32:47.045Z,18.37
2019-05-17T17:35:11.121Z,16.30
2019-05-17T17:37:21.281Z,18.60
2019-05-17T17:39:33.680Z,17.27
2019-05-17T17:41:44.065Z,18.40
2019-05-17T17:43:58.718Z,17.93
2019-05-17T17:46:12.767Z,17.53
2019-05-17T17:48:32.546Z,16.83
2019-05-17T17:50:51.091Z,15.53
2019-05-17T17:53:03.094Z,15.60
2019-05-17T17:55:27.469Z,16.13
2019-05-17T17:57:52.819Z,17.20
2019-05-17T18:00:20.815Z,16.40
2019-05-17T18:02:45.393Z,16.20
2019-05-17T18:04:58.297Z,16.63
2019-05-17T18:07:25.604Z,15.73
2019-05-17T18:09:44.638Z,15.70
2019-05-17T18:14:58.444Z,15.70
2019-05-17T18:17:17.337Z,16.30
2019-05-17T18:19:32.702Z,15.43
2019-05-17T18:21:57.517Z,16.30
2019-05-17T18:24:13.101Z,15.10
2019-05-17T18:26:22.353Z,15.33
2019-05-17T18:28:44.398Z,15.90
2019-05-17T18:31:05.587Z,16.60
2019-05-17T18:33:26.974Z,16.20
2019-05-17T18:35:42.294Z,15.37
2019-05-17T18:37:53.893Z,15.90
2019-05-17T18:40:12.343Z,13.90
2019-05-17T18:42:34.971Z,15.37
2019-05-17T18:45:01.963Z,16.30
2019-05-17T18:47:31.170Z,16.27
2019-05-17T18:50:00.298Z,15.77
2019-05-17T18:52:15.724Z,15.80
2019-05-17T18:54:45.390Z,15.10
2019-05-17T18:56:59.569Z,15.73
2019-05-17T18:59:10.350Z,15.27
2019-05-17T19:01:26.145Z,15.03
2019-05-17T19:03:43.477Z,14.27
2019-05-17T19:06:13.267Z,14.17
2019-05-17T19:08:43.493Z,15.83
2019-05-17T19:11:00.692Z,14.13
2019-05-17T19:13:22.439Z,14.90
2019-05-17T19:15:45.742Z,14.87
2019-05-17T19:18:08.288Z,15.60
2019-05-17T19:20:35.858Z,16.43
2019-05-17T19:23:06.866Z,16.87
2019-05-17T19:25:16.393Z,17.40
2019-05-17T19:27:36.449Z,16.50
2019-05-17T19:29:44.386Z,17.37
2019-05-17T19:31:54.839Z,16.63
2019-05-17T19:34:19.302Z,17.33
2019-05-17T19:36:41.535Z,17.20
2019-05-17T19:38:57.101Z,16.27
2019-05-17T19:41:05.294Z,15.77
2019-05-17T19:43:19.418Z,16.13
2019-05-17T19:45:36.500Z,16.20
2019-05-17T19:47:48.409Z,16.67
2019-05-17T19:50:06.250Z,17.00
2019-05-17T19:52:25.840Z,15.97
2019-05-17T19:54:46.523Z,16.97
2019-05-17T19:59:48.641Z,16.67
2019-05-17T20:02:24.473Z,18.17
2019-05-17T20:04:43.644Z,17.90
2019-05-17T20:07:01.918Z,17.80
2019-05-17T20:09:26.690Z,16.87
2019-05-17T20:12:31.094Z,19.50
2019-05-17T20:14:48.756Z,18.67
2019-05-17T20:17:12.385Z,18.53
2019-05-17T20:19:26.225Z,18.53
2019-05-17T20:21:46.652Z,17.13
2019-05-17T20:24:09.154Z,18.90
2019-05-17T20:26:18.408Z,16.63
2019-05-17T20:28:37.009Z,16.93
2019-05-17T20:31:02.261Z,18.20
2019-05-17T20:33:19.075Z,18.67
2019-05-17T20:35:37.312Z,18.43
2019-05-17T20:38:00.253Z,17.10
2019-05-17T20:40:11.417Z,17.27
2019-05-17T20:42:14.515Z,16.60
2019-05-17T20:44:37.625Z,15.83
2019-05-17T20:46:58.985Z,15.90
2019-05-17T20:49:10.611Z,15.50
2019-05-17T20:51:24.692Z,16.73
2019-05-17T20:53:43.716Z,16.90
2019-05-17T20:55:56.859Z,15.47
2019-05-17T20:58:12.801Z,16.87
2019-05-17T21:00:31.035Z,17.33
2019-05-17T21:02:46.400Z,15.80
2019-05-17T21:04:57.859Z,17.50
2019-05-17T21:07:31.677Z,17.10
2019-05-17T21:09:43.086Z,16.87
2019-05-17T21:12:05.165Z,17.10
2019-05-17T21:14:20.377Z,16.60
2019-05-17T21:16:31.073Z,18.20
2019-05-17T21:18:43.313Z,17.90
2019-05-17T21:21:12.193Z,16.27
2019-05-17T21:23:33.144Z,16.90
2019-05-17T21:25:41.686Z,17.47
2019-05-17T21:27:56.271Z,17.33
2019-05-17T21:30:01.964Z,19.80
2019-05-17T21:32:23.274Z,18.80
2019-05-17T21:34:42.094Z,18.30
2019-05-17T21:36:54.292Z,21.67
2019-05-17T21:39:19.482Z,18.30
2019-05-17T21:44:29.315Z,20.57
2019-05-17T21:47:08.308Z,20.23
2019-05-17T21:49:49.364Z,20.50
2019-05-17T21:52:06.975Z,18.30
2019-05-17T21:54:36.215Z,19.87
2019-05-17T21:56:49.168Z,20.73
2019-05-17T21:59:12.699Z,19.87
2019-05-17T22:01:54.457Z,20.37
2019-05-17T22:04:14.369Z,20.33
2019-05-17T22:09:57.501Z,20.83
2019-05-17T22:12:36.220Z,22.13
2019-05-17T22:15:03.030Z,21.70
2019-05-17T22:17:37.597Z,22.53
2019-05-17T22:19:58.499Z,22.50
2019-05-17T22:22:48.335Z,22.30
2019-05-17T22:25:16.053Z,24.60
2019-05-17T22:27:56.462Z,24.40
2019-05-17T22:30:17.761Z,22.60
2019-05-17T22:32:48.612Z,22.30
2019-05-17T22:38:00.209Z,23.60
2019-05-17T22:40:19.145Z,23.87
2019-05-17T22:42:31.995Z,23.10
2019-05-17T22:45:04.887Z,24.73
2019-05-17T22:47:36.377Z,26.47
2019-05-17T22:49:56.011Z,26.77
2019-05-17T22:52:16.786Z,25.20
2019-05-17T22:54:29.581Z,25.50
2019-05-17T22:56:47.579Z,29.43
2019-05-17T22:59:01.762Z,24.93
2019-05-17T23:04:02.269Z,28.20
2019-05-17T23:06:53.206Z,27.63
2019-05-17T23:09:08.351Z,27.50
2019-05-17T23:11:02.456Z,26.50
2019-05-17T23:13:33.324Z,26.67
2019-05-17T23:16:06.002Z,27.27
2019-05-17T23:18:34.228Z,29.10
2019-05-17T23:20:46.891Z,28.70
2019-05-17T23:22:59.006Z,26.30
2019-05-17T23:25:10.531Z,29.20
2019-05-17T23:27:48.223Z,29.10
2019-05-17T23:30:15.001Z,30.07
2019-05-17T23:32:36.160Z,30.20
2019-05-17T23:35:00.458Z,30.43
2019-05-17T23:37:09.131Z,32.50
2019-05-17T23:39:30.508Z,29.00
2019-05-17T23:41:43.273Z,27.17
2019-05-17T23:44:03.857Z,28.50
2019-05-17T23:46:19.031Z,29.60
2019-05-17T23:48:26.890Z,28.47
2019-05-17T23:50:36.858Z,29.70
2019-05-17T23:52:44.679Z,30.07
2019-05-17T23:55:08.024Z,30.07
2019-05-17T23:57:25.821Z,31.57
2019-05-17T23:59:35.199Z,33.87
